createdAt,value
2018-12-01T00:01:15.425Z,98462.83
2018-12-01T00:03:27.571Z,98461.28
2018-12-01T00:05:39.764Z,98462.20
2018-12-01T00:07:52.119Z,98464.00
2018-12-01T00:10:05.171Z,98458.08
2018-12-01T00:12:17.329Z,98463.16
2018-12-01T00:14:29.522Z,98464.00
2018-12-01T00:16:41.741Z,98470.46
2018-12-01T00:18:53.901Z,98457.03
2018-12-01T00:21:06.089Z,98464.58
2018-12-01T00:23:18.308Z,98466.24
2018-12-01T00:25:30.772Z,98468.24
2018-12-01T00:27:43.306Z,98462.19
2018-12-01T00:29:55.807Z,98473.03
2018-12-01T00:32:08.320Z,98465.87
2018-12-01T00:34:20.816Z,98459.86
2018-12-01T00:36:33.406Z,98458.78
2018-12-01T00:38:45.843Z,98457.03
2018-12-01T00:40:58.512Z,98460.91
2018-12-01T00:43:10.991Z,98461.28
2018-12-01T00:45:23.468Z,98471.25
2018-12-01T00:47:35.804Z,98471.83
2018-12-01T00:49:48.301Z,98465.12
2018-12-01T00:52:00.714Z,98467.76
2018-12-01T00:54:13.187Z,98471.38
2018-12-01T00:56:25.749Z,98476.17
2018-12-01T00:58:38.283Z,98477.22
2018-12-01T01:00:50.839Z,98477.84
2018-12-01T01:03:03.446Z,98472.30
2018-12-01T01:05:16.050Z,98481.84
2018-12-01T01:07:28.601Z,98486.43
2018-12-01T01:09:41.123Z,98482.13
2018-12-01T01:11:53.642Z,98497.20
2018-12-01T01:14:06.186Z,98500.56
2018-12-01T01:16:18.802Z,98511.14
2018-12-01T01:18:31.354Z,98510.26
2018-12-01T01:20:43.625Z,98504.56
2018-12-01T01:22:55.808Z,98512.19
2018-12-01T01:25:09.199Z,98512.52
2018-12-01T01:27:21.377Z,98512.19
2018-12-01T01:29:33.568Z,98511.61
2018-12-01T01:31:45.754Z,98509.74
2018-12-01T01:33:57.956Z,98513.50
2018-12-01T01:36:10.173Z,98510.08
2018-12-01T01:38:22.379Z,98510.84
2018-12-01T01:40:34.574Z,98512.99
2018-12-01T01:42:46.789Z,98513.62
2018-12-01T01:44:58.978Z,98510.89
2018-12-01T01:47:11.184Z,98518.77
2018-12-01T01:49:23.386Z,98511.22
2018-12-01T01:51:35.585Z,98516.00
2018-12-01T01:53:47.819Z,98513.84
2018-12-01T01:56:00.016Z,98520.63
2018-12-01T01:58:12.198Z,98518.46
2018-12-01T02:00:24.449Z,98514.25
2018-12-01T02:02:36.655Z,98516.00
2018-12-01T02:04:48.868Z,98517.22
2018-12-01T02:07:01.017Z,98524.17
2018-12-01T02:09:13.253Z,98522.50
2018-12-01T02:11:25.413Z,98520.30
2018-12-01T02:13:37.589Z,98516.95
2018-12-01T02:15:49.765Z,98514.87
2018-12-01T02:18:01.940Z,98515.33
2018-12-01T02:20:15.899Z,98517.45
2018-12-01T02:22:28.091Z,98514.03
2018-12-01T02:24:40.262Z,98512.60
2018-12-01T02:26:52.413Z,98509.56
2018-12-01T02:29:04.692Z,98509.83
2018-12-01T02:31:16.914Z,98508.53
2018-12-01T02:33:29.109Z,98513.20
2018-12-01T02:35:41.291Z,98516.50
2018-12-01T02:37:53.474Z,98516.84
2018-12-01T02:40:08.183Z,98508.89
2018-12-01T02:42:20.342Z,98505.85
2018-12-01T02:44:58.528Z,98500.69
2018-12-01T02:47:10.680Z,98509.98
2018-12-01T02:49:22.860Z,98514.27
2018-12-01T02:51:35.040Z,98521.37
2018-12-01T02:53:47.230Z,98525.05
2018-12-01T02:55:59.433Z,98518.92
2018-12-01T02:58:11.605Z,98523.17
2018-12-01T03:00:23.816Z,98532.88
2018-12-01T03:02:36.232Z,98531.84
2018-12-01T03:04:48.408Z,98526.94
2018-12-01T03:07:00.593Z,98528.56
2018-12-01T03:09:12.753Z,98521.31
2018-12-01T03:11:24.979Z,98521.64
2018-12-01T03:13:37.161Z,98518.14
2018-12-01T03:15:49.346Z,98523.65
2018-12-01T03:18:01.569Z,98520.23
2018-12-01T03:20:14.546Z,98534.06
2018-12-01T03:22:26.728Z,98527.06
2018-12-01T03:24:38.928Z,98530.03
2018-12-01T03:26:51.088Z,98534.56
2018-12-01T03:29:03.229Z,98527.89
2018-12-01T03:31:15.401Z,98528.17
2018-12-01T03:33:27.561Z,98524.62
2018-12-01T03:35:39.732Z,98526.03
2018-12-01T03:37:51.985Z,98528.78
2018-12-01T03:40:05.224Z,98523.36
2018-12-01T03:42:17.378Z,98530.80
2018-12-01T03:44:29.564Z,98531.38
2018-12-01T03:46:41.732Z,98530.63
2018-12-01T03:48:53.918Z,98532.45
2018-12-01T03:51:06.093Z,98531.98
2018-12-01T03:53:18.270Z,98530.81
2018-12-01T03:55:32.552Z,98529.15
2018-12-01T03:57:44.701Z,98527.33
2018-12-01T03:59:56.884Z,98526.61
2018-12-01T04:02:09.088Z,98523.00
2018-12-01T04:04:21.281Z,98524.03
2018-12-01T04:06:33.453Z,98526.01
2018-12-01T04:08:45.613Z,98517.13
2018-12-01T04:10:57.785Z,98513.11
2018-12-01T04:13:09.952Z,98514.09
2018-12-01T04:15:22.235Z,98523.28
2018-12-01T04:17:34.402Z,98524.83
2018-12-01T04:19:46.588Z,98531.73
2018-12-01T04:21:58.754Z,98533.97
2018-12-01T04:24:10.928Z,98536.59
2018-12-01T04:26:23.097Z,98535.70
2018-12-01T04:28:35.316Z,98531.41
2018-12-01T04:30:47.496Z,98532.03
2018-12-01T04:32:59.742Z,98541.09
2018-12-01T04:35:18.937Z,98542.95
2018-12-01T04:37:31.165Z,98543.86
2018-12-01T04:39:43.356Z,98543.86
2018-12-01T04:41:55.517Z,98552.87
2018-12-01T04:44:07.718Z,98542.95
2018-12-01T04:46:19.968Z,98554.52
2018-12-01T04:48:32.192Z,98552.26
2018-12-01T04:50:44.417Z,98554.20
2018-12-01T04:52:56.643Z,98548.31
2018-12-01T04:55:11.932Z,98544.52
2018-12-01T04:57:24.144Z,98550.06
2018-12-01T04:59:36.320Z,98550.83
2018-12-01T05:01:48.497Z,98548.59
2018-12-01T05:04:00.665Z,98546.48
2018-12-01T05:06:12.833Z,98545.12
2018-12-01T05:08:25.001Z,98541.88
2018-12-01T05:10:37.229Z,98556.36
2018-12-01T05:12:49.477Z,98543.90
2018-12-01T05:15:01.616Z,98547.77
2018-12-01T05:17:13.896Z,98548.50
2018-12-01T05:19:26.053Z,98548.35
2018-12-01T05:21:38.256Z,98547.34
2018-12-01T05:23:50.416Z,98541.62
2018-12-01T05:26:02.622Z,98544.58
2018-12-01T05:28:14.772Z,98552.39
2018-12-01T05:30:26.969Z,98555.42
2018-12-01T05:32:39.135Z,98555.42
2018-12-01T05:34:51.288Z,98558.56
2018-12-01T05:37:03.457Z,98555.18
2018-12-01T05:39:15.620Z,98561.14
2018-12-01T05:41:27.800Z,98561.87
2018-12-01T05:43:40.074Z,98558.94
2018-12-01T05:45:52.229Z,98557.09
2018-12-01T05:48:04.838Z,98559.95
2018-12-01T05:50:28.978Z,98561.58
2018-12-01T05:52:41.164Z,98566.18
2018-12-01T05:54:53.315Z,98571.66
2018-12-01T05:57:05.507Z,98573.25
2018-12-01T05:59:17.696Z,98575.83
2018-12-01T06:01:29.889Z,98565.33
2018-12-01T06:03:42.072Z,98568.41
2018-12-01T06:05:54.240Z,98569.42
2018-12-01T06:08:06.777Z,98572.27
2018-12-01T06:10:20.783Z,98569.09
2018-12-01T06:12:32.936Z,98568.98
2018-12-01T06:14:45.095Z,98568.56
2018-12-01T06:16:57.258Z,98572.78
2018-12-01T06:19:09.436Z,98573.39
2018-12-01T06:21:21.580Z,98573.39
2018-12-01T06:23:33.771Z,98580.30
2018-12-01T06:25:45.965Z,98581.59
2018-12-01T06:27:58.149Z,98591.00
2018-12-01T06:30:15.061Z,98592.67
2018-12-01T06:32:27.240Z,98595.33
2018-12-01T06:34:39.411Z,98597.00
2018-12-01T06:36:51.614Z,98599.02
2018-12-01T06:39:05.889Z,98607.10
2018-12-01T06:41:18.054Z,98612.83
2018-12-01T06:43:30.274Z,98611.47
2018-12-01T06:45:42.461Z,98618.59
2018-12-01T06:47:54.700Z,98624.00
2018-12-01T06:50:22.336Z,98626.41
2018-12-01T06:52:34.501Z,98632.95
2018-12-01T06:54:46.670Z,98628.84
2018-12-01T06:56:58.866Z,98628.73
2018-12-01T06:59:11.121Z,98628.56
2018-12-01T07:01:23.307Z,98628.87
2018-12-01T07:03:35.526Z,98630.88
2018-12-01T07:05:47.714Z,98631.18
2018-12-01T07:07:59.884Z,98636.14
2018-12-01T07:10:14.176Z,98636.56
2018-12-01T07:12:26.354Z,98647.00
2018-12-01T07:14:38.529Z,98643.78
2018-12-01T07:16:50.722Z,98644.77
2018-12-01T07:19:17.681Z,98639.00
2018-12-01T07:21:29.877Z,98635.45
2018-12-01T07:23:42.020Z,98636.86
2018-12-01T07:25:54.210Z,98643.63
2018-12-01T07:28:06.412Z,98641.05
2018-12-01T07:30:18.636Z,98641.35
2018-12-01T07:32:30.800Z,98636.98
2018-12-01T07:34:42.993Z,98626.30
2018-12-01T07:36:55.250Z,98628.66
2018-12-01T07:39:08.309Z,98629.81
2018-12-01T07:41:20.493Z,98623.65
2018-12-01T07:43:32.725Z,98628.39
2018-12-01T07:45:44.919Z,98624.66
2018-12-01T07:47:57.092Z,98632.27
2018-12-01T07:50:11.663Z,98633.80
2018-12-01T07:52:23.858Z,98632.98
2018-12-01T07:54:36.060Z,98633.69
2018-12-01T07:56:48.233Z,98637.38
2018-12-01T07:59:00.424Z,98636.30
2018-12-01T08:01:12.629Z,98633.41
2018-12-01T08:03:24.884Z,98636.81
2018-12-01T08:05:37.086Z,98644.17
2018-12-01T08:07:49.300Z,98640.41
2018-12-01T08:10:01.549Z,98632.05
2018-12-01T08:12:13.804Z,98637.96
2018-12-01T08:14:26.057Z,98634.69
2018-12-01T08:16:38.273Z,98637.27
2018-12-01T08:18:50.545Z,98635.69
2018-12-01T08:21:02.792Z,98627.34
2018-12-01T08:23:15.347Z,98628.84
2018-12-01T08:25:27.545Z,98624.20
2018-12-01T08:27:39.817Z,98624.53
2018-12-01T08:29:52.084Z,98624.20
2018-12-01T08:32:04.958Z,98619.10
2018-12-01T08:34:17.164Z,98619.59
2018-12-01T08:36:29.371Z,98624.33
2018-12-01T08:38:41.565Z,98621.05
2018-12-01T08:40:53.821Z,98626.48
2018-12-01T08:43:06.044Z,98618.77
2018-12-01T08:45:18.278Z,98627.78
2018-12-01T08:47:30.506Z,98617.17
2018-12-01T08:49:42.735Z,98621.09
2018-12-01T08:51:55.066Z,98609.77
2018-12-01T08:54:07.269Z,98616.66
2018-12-01T08:56:19.509Z,98613.39
2018-12-01T08:58:31.730Z,98605.00
2018-12-01T09:00:43.996Z,98593.96
2018-12-01T09:02:58.780Z,98594.62
2018-12-01T09:05:11.041Z,98591.95
2018-12-01T09:07:23.278Z,98590.11
2018-12-01T09:09:35.481Z,98585.15
2018-12-01T09:11:47.761Z,98578.97
2018-12-01T09:13:59.980Z,98583.07
2018-12-01T09:16:12.249Z,98587.21
2018-12-01T09:18:24.453Z,98597.11
2018-12-01T09:20:36.673Z,98595.67
2018-12-01T09:22:48.947Z,98597.77
2018-12-01T09:25:01.157Z,98597.52
2018-12-01T09:27:13.417Z,98598.61
2018-12-01T09:29:25.647Z,98602.25
2018-12-01T09:31:37.873Z,98602.25
2018-12-01T09:33:50.116Z,98601.33
2018-12-01T09:36:02.334Z,98604.27
2018-12-01T09:38:14.538Z,98606.36
2018-12-01T09:40:26.763Z,98597.63
2018-12-01T09:42:39.056Z,98590.56
2018-12-01T09:44:52.143Z,98593.59
2018-12-01T09:47:04.592Z,98592.81
2018-12-01T09:49:16.813Z,98596.06
2018-12-01T09:51:28.990Z,98598.45
2018-12-01T09:53:41.213Z,98599.45
2018-12-01T09:55:53.377Z,98605.00
2018-12-01T09:58:05.996Z,98604.73
2018-12-01T10:00:19.695Z,98601.67
2018-12-01T10:02:31.898Z,98594.66
2018-12-01T10:04:44.113Z,98592.84
2018-12-01T10:06:56.341Z,98598.49
2018-12-01T10:09:09.185Z,98600.34
2018-12-01T10:11:21.455Z,98595.99
2018-12-01T10:13:33.677Z,98590.34
2018-12-01T10:15:45.897Z,98590.80
2018-12-01T10:17:58.132Z,98584.45
2018-12-01T10:20:12.867Z,98593.22
2018-12-01T10:22:25.042Z,98588.20
2018-12-01T10:24:37.247Z,98578.87
2018-12-01T10:26:49.479Z,98577.08
2018-12-01T10:29:01.720Z,98569.33
2018-12-01T10:31:13.932Z,98566.85
2018-12-01T10:33:26.155Z,98567.53
2018-12-01T10:35:38.374Z,98561.97
2018-12-01T10:37:55.024Z,98566.16
2018-12-01T10:40:09.418Z,98568.15
2018-12-01T10:42:21.629Z,98563.64
2018-12-01T10:44:33.848Z,98562.03
2018-12-01T10:46:46.385Z,98561.35
2018-12-01T10:48:58.572Z,98555.11
2018-12-01T10:51:10.762Z,98559.00
2018-12-01T10:53:22.977Z,98558.98
2018-12-01T10:55:35.331Z,98559.23
2018-12-01T10:57:47.520Z,98554.84
2018-12-01T10:59:59.755Z,98558.20
2018-12-01T11:02:17.589Z,98561.58
2018-12-01T11:04:35.510Z,98557.53
2018-12-01T11:06:47.763Z,98554.84
2018-12-01T11:08:59.972Z,98552.86
2018-12-01T11:11:12.179Z,98540.45
2018-12-01T11:13:24.418Z,98540.42
2018-12-01T11:15:36.665Z,98538.13
2018-12-01T11:17:48.906Z,98538.23
2018-12-01T11:20:01.215Z,98532.53
2018-12-01T11:22:13.454Z,98530.11
2018-12-01T11:24:25.688Z,98525.06
2018-12-01T11:26:37.891Z,98527.09
2018-12-01T11:28:50.224Z,98522.42
2018-12-01T11:31:02.455Z,98523.42
2018-12-01T11:33:14.731Z,98527.17
2018-12-01T11:35:26.935Z,98525.45
2018-12-01T11:37:39.199Z,98523.56
2018-12-01T11:39:51.382Z,98521.87
2018-12-01T11:42:03.741Z,98520.38
2018-12-01T11:44:15.990Z,98514.25
2018-12-01T11:46:28.279Z,98513.84
2018-12-01T11:48:40.585Z,98503.19
2018-12-01T11:50:52.864Z,98499.42
2018-12-01T11:53:05.188Z,98501.65
2018-12-01T11:55:18.793Z,98491.13
2018-12-01T11:57:31.012Z,98489.25
2018-12-01T11:59:43.246Z,98490.88
2018-12-01T12:02:00.252Z,98487.14
2018-12-01T12:04:07.759Z,98485.98
2018-12-01T12:06:19.966Z,98482.95
2018-12-01T12:08:32.236Z,98482.37
2018-12-01T12:10:44.488Z,98480.03
2018-12-01T12:12:56.722Z,98477.44
2018-12-01T12:15:09.971Z,98485.63
2018-12-01T12:17:22.161Z,98483.73
2018-12-01T12:19:34.451Z,98480.48
2018-12-01T12:21:46.697Z,98473.45
2018-12-01T12:23:58.941Z,98483.72
2018-12-01T12:26:11.207Z,98483.42
2018-12-01T12:28:23.449Z,98486.56
2018-12-01T12:30:35.714Z,98487.95
2018-12-01T12:32:48.269Z,98488.59
2018-12-01T12:35:00.495Z,98488.77
2018-12-01T12:37:12.736Z,98485.04
2018-12-01T12:39:24.996Z,98492.13
2018-12-01T12:41:37.237Z,98491.47
2018-12-01T12:43:49.429Z,98486.80
2018-12-01T12:46:01.665Z,98474.78
2018-12-01T12:48:13.856Z,98461.57
2018-12-01T12:50:26.887Z,98464.27
2018-12-01T12:52:39.117Z,98459.31
2018-12-01T12:54:51.318Z,98459.20
2018-12-01T12:57:03.603Z,98458.11
2018-12-01T12:59:15.785Z,98455.64
2018-12-01T13:01:28.012Z,98457.20
2018-12-01T13:03:40.228Z,98446.25
2018-12-01T13:05:52.529Z,98447.08
2018-12-01T13:08:07.269Z,98444.13
2018-12-01T13:10:20.786Z,98444.66
2018-12-01T13:12:32.992Z,98441.49
2018-12-01T13:14:45.212Z,98441.30
2018-12-01T13:16:57.453Z,98442.76
2018-12-01T13:19:09.677Z,98436.77
2018-12-01T13:21:21.905Z,98436.30
2018-12-01T13:23:34.100Z,98429.00
2018-12-01T13:25:46.293Z,98426.50
2018-12-01T13:28:15.982Z,98423.77
2018-12-01T13:30:29.746Z,98416.73
2018-12-01T13:32:42.011Z,98409.84
2018-12-01T13:34:54.205Z,98411.51
2018-12-01T13:37:06.509Z,98407.13
2018-12-01T13:39:19.753Z,98402.93
2018-12-01T13:41:31.069Z,98406.46
2018-12-01T13:43:43.414Z,98407.73
2018-12-01T13:45:55.637Z,98405.20
2018-12-01T13:48:08.351Z,98403.54
2018-12-01T13:50:21.043Z,98402.78
2018-12-01T13:52:33.276Z,98399.62
2018-12-01T13:54:45.555Z,98397.12
2018-12-01T13:56:57.750Z,98395.05
2018-12-01T13:59:09.963Z,98398.78
2018-12-01T14:01:22.221Z,98395.89
2018-12-01T14:03:34.470Z,98392.09
2018-12-01T14:05:46.697Z,98393.86
2018-12-01T14:07:58.937Z,98402.65
2018-12-01T14:10:15.163Z,98398.39
2018-12-01T14:12:27.370Z,98405.41
2018-12-01T14:14:39.591Z,98405.11
2018-12-01T14:16:51.846Z,98412.44
2018-12-01T14:19:04.197Z,98414.46
2018-12-01T14:21:16.446Z,98429.67
2018-12-01T14:23:28.695Z,98427.30
2018-12-01T14:25:40.947Z,98423.81
2018-12-01T14:27:58.744Z,98424.08
2018-12-01T14:30:14.933Z,98418.16
2018-12-01T14:32:27.141Z,98417.02
2018-12-01T14:34:39.433Z,98418.41
2018-12-01T14:36:51.628Z,98413.29
2018-12-01T14:39:06.624Z,98411.06
2018-12-01T14:41:18.837Z,98414.59
2018-12-01T14:43:31.110Z,98410.39
2018-12-01T14:45:45.300Z,98419.20
2018-12-01T14:47:57.533Z,98416.37
2018-12-01T14:50:13.253Z,98418.23
2018-12-01T14:52:25.478Z,98414.04
2018-12-01T14:54:37.787Z,98414.77
2018-12-01T14:56:50.961Z,98418.92
2018-12-01T14:59:03.241Z,98412.74
2018-12-01T15:01:15.526Z,98410.04
2018-12-01T15:03:27.759Z,98406.07
2018-12-01T15:05:40.689Z,98400.84
2018-12-01T15:07:52.919Z,98398.77
2018-12-01T15:10:07.940Z,98403.13
2018-12-01T15:12:20.152Z,98400.02
2018-12-01T15:14:32.377Z,98395.92
2018-12-01T15:16:44.661Z,98396.91
2018-12-01T15:18:57.743Z,98396.17
2018-12-01T15:21:13.921Z,98389.75
2018-12-01T15:23:26.194Z,98400.13
2018-12-01T15:25:38.458Z,98394.92
2018-12-01T15:27:50.710Z,98394.67
2018-12-01T15:30:04.880Z,98395.20
2018-12-01T15:32:17.129Z,98392.95
2018-12-01T15:34:29.356Z,98390.52
2018-12-01T15:36:41.565Z,98394.20
2018-12-01T15:38:53.797Z,98393.59
2018-12-01T15:41:06.088Z,98401.92
2018-12-01T15:43:18.382Z,98397.89
2018-12-01T15:45:30.597Z,98392.86
2018-12-01T15:47:42.947Z,98389.06
2018-12-01T15:49:55.173Z,98391.35
2018-12-01T15:52:07.365Z,98392.49
2018-12-01T15:54:19.669Z,98393.30
2018-12-01T15:56:31.859Z,98388.88
2018-12-01T15:58:45.856Z,98392.55
2018-12-01T16:00:58.130Z,98395.58
2018-12-01T16:03:10.396Z,98390.39
2018-12-01T16:05:23.237Z,98390.86
2018-12-01T16:07:35.546Z,98391.41
2018-12-01T16:09:47.788Z,98394.83
2018-12-01T16:11:59.980Z,98391.28
2018-12-01T16:14:12.356Z,98391.42
2018-12-01T16:16:24.661Z,98388.62
2018-12-01T16:18:36.956Z,98386.64
2018-12-01T16:20:49.226Z,98377.56
2018-12-01T16:23:01.480Z,98384.95
2018-12-01T16:25:14.791Z,98382.28
2018-12-01T16:27:26.960Z,98377.19
2018-12-01T16:29:39.205Z,98376.05
2018-12-01T16:31:51.460Z,98376.19
2018-12-01T16:34:03.667Z,98374.58
2018-12-01T16:36:17.803Z,98374.16
2018-12-01T16:38:31.725Z,98370.87
2018-12-01T16:40:47.930Z,98371.92
2018-12-01T16:43:01.144Z,98369.56
2018-12-01T16:45:14.193Z,98367.06
2018-12-01T16:47:26.465Z,98365.45
2018-12-01T16:49:38.657Z,98364.77
2018-12-01T16:51:50.968Z,98369.48
2018-12-01T16:54:03.227Z,98363.39
2018-12-01T16:56:15.475Z,98366.06
2018-12-01T16:58:27.673Z,98367.59
2018-12-01T17:00:40.290Z,98360.73
2018-12-01T17:02:54.801Z,98357.98
2018-12-01T17:05:08.529Z,98367.45
2018-12-01T17:07:20.784Z,98360.11
2018-12-01T17:09:33.056Z,98359.28
2018-12-01T17:11:45.341Z,98357.30
2018-12-01T17:13:57.632Z,98355.26
2018-12-01T17:16:09.869Z,98355.72
2018-12-01T17:18:22.147Z,98351.28
2018-12-01T17:20:34.371Z,98349.47
2018-12-01T17:22:51.127Z,98350.37
2018-12-01T17:25:04.715Z,98346.89
2018-12-01T17:27:17.009Z,98350.37
2018-12-01T17:29:29.220Z,98346.89
2018-12-01T17:31:41.475Z,98343.47
2018-12-01T17:33:53.709Z,98341.77
2018-12-01T17:36:05.890Z,98335.76
2018-12-01T17:38:19.224Z,98336.83
2018-12-01T17:40:39.935Z,98331.34
2018-12-01T17:42:54.009Z,98333.64
2018-12-01T17:45:08.618Z,98332.72
2018-12-01T17:47:20.828Z,98333.23
2018-12-01T17:49:33.124Z,98331.66
2018-12-01T17:51:45.366Z,98332.64
2018-12-01T17:54:01.638Z,98332.32
2018-12-01T17:56:13.833Z,98340.83
2018-12-01T17:58:26.125Z,98342.81
2018-12-01T18:00:39.204Z,98338.30
2018-12-01T18:02:58.893Z,98335.89
2018-12-01T18:05:13.424Z,98333.55
2018-12-01T18:07:25.655Z,98330.64
2018-12-01T18:09:37.934Z,98328.70
2018-12-01T18:11:50.144Z,98328.75
2018-12-01T18:14:02.346Z,98330.35
2018-12-01T18:16:14.586Z,98334.05
2018-12-01T18:18:32.956Z,98327.94
2018-12-01T18:20:45.386Z,98327.19
2018-12-01T18:22:58.889Z,98327.54
2018-12-01T18:25:11.111Z,98322.91
2018-12-01T18:27:23.396Z,98320.00
2018-12-01T18:29:35.601Z,98319.79
2018-12-01T18:31:47.821Z,98312.62
2018-12-01T18:34:03.866Z,98318.39
2018-12-01T18:36:16.128Z,98313.30
2018-12-01T18:38:28.425Z,98312.02
2018-12-01T18:40:40.645Z,98309.75
2018-12-01T18:42:52.913Z,98307.30
2018-12-01T18:45:08.277Z,98304.85
2018-12-01T18:47:20.490Z,98300.73
2018-12-01T18:49:32.703Z,98296.73
2018-12-01T18:51:44.974Z,98300.20
2018-12-01T18:53:57.196Z,98294.33
2018-12-01T18:56:09.429Z,98289.95
2018-12-01T18:58:21.679Z,98289.03
2018-12-01T19:00:43.573Z,98289.58
2018-12-01T19:02:55.838Z,98288.66
2018-12-01T19:05:08.172Z,98285.94
2018-12-01T19:07:20.368Z,98281.28
2018-12-01T19:09:32.600Z,98282.33
2018-12-01T19:11:44.855Z,98274.83
2018-12-01T19:13:57.853Z,98267.74
2018-12-01T19:16:10.120Z,98269.59
2018-12-01T19:18:22.367Z,98263.97
2018-12-01T19:20:34.593Z,98262.90
2018-12-01T19:22:47.899Z,98267.50
2018-12-01T19:25:01.098Z,98262.39
2018-12-01T19:27:12.445Z,98260.91
2018-12-01T19:29:24.687Z,98270.78
2018-12-01T19:31:37.036Z,98264.33
2018-12-01T19:33:49.310Z,98263.73
2018-12-01T19:36:01.605Z,98261.47
2018-12-01T19:38:15.450Z,98259.04
2018-12-01T19:40:28.953Z,98261.11
2018-12-01T19:42:41.064Z,98257.69
2018-12-01T19:44:53.349Z,98254.19
2018-12-01T19:47:05.797Z,98255.70
2018-12-01T19:49:18.022Z,98257.83
2018-12-01T19:51:30.289Z,98250.63
2018-12-01T19:53:42.580Z,98240.67
2018-12-01T19:55:54.804Z,98243.41
2018-12-01T19:58:09.493Z,98242.05
2018-12-01T20:00:23.937Z,98234.99
2018-12-01T20:02:36.153Z,98227.16
2018-12-01T20:04:48.383Z,98228.91
2018-12-01T20:07:00.602Z,98227.47
2018-12-01T20:09:12.853Z,98227.84
2018-12-01T20:11:25.065Z,98226.95
2018-12-01T20:13:40.786Z,98232.87
2018-12-01T20:15:59.360Z,98228.48
2018-12-01T20:18:17.437Z,98228.33
2018-12-01T20:20:29.679Z,98227.41
2018-12-01T20:22:41.890Z,98226.50
2018-12-01T20:24:54.144Z,98231.89
2018-12-01T20:27:06.384Z,98226.66
2018-12-01T20:29:18.615Z,98224.22
2018-12-01T20:31:30.850Z,98225.37
2018-12-01T20:33:43.074Z,98217.09
2018-12-01T20:36:16.848Z,98214.73
2018-12-01T20:38:51.971Z,98215.71
2018-12-01T20:41:04.622Z,98212.14
2018-12-01T20:43:16.903Z,98206.83
2018-12-01T20:45:29.132Z,98211.73
2018-12-01T20:47:41.478Z,98201.94
2018-12-01T20:49:53.670Z,98208.69
2018-12-01T20:52:06.211Z,98206.56
2018-12-01T20:54:27.717Z,98202.68
2018-12-01T20:56:40.278Z,98198.40
2018-12-01T20:58:52.509Z,98196.50
2018-12-01T21:01:05.158Z,98193.91
2018-12-01T21:03:17.418Z,98194.46
2018-12-01T21:05:29.652Z,98186.30
2018-12-01T21:07:41.895Z,98181.59
2018-12-01T21:09:54.100Z,98176.47
2018-12-01T21:12:07.688Z,98176.41
2018-12-01T21:14:19.962Z,98181.59
2018-12-01T21:16:32.189Z,98179.41
2018-12-01T21:18:44.447Z,98182.36
2018-12-01T21:20:56.709Z,98171.09
2018-12-01T21:23:08.965Z,98173.62
2018-12-01T21:25:23.001Z,98171.09
2018-12-01T21:27:35.207Z,98165.77
2018-12-01T21:29:47.416Z,98159.60
2018-12-01T21:31:59.626Z,98150.61
2018-12-01T21:34:11.957Z,98145.31
2018-12-01T21:36:24.154Z,98145.12
2018-12-01T21:38:36.398Z,98145.50
2018-12-01T21:40:48.679Z,98142.02
2018-12-01T21:43:00.865Z,98145.50
2018-12-01T21:45:14.426Z,98139.83
2018-12-01T21:47:26.635Z,98143.25
2018-12-01T21:49:38.922Z,98134.14
2018-12-01T21:51:51.881Z,98133.06
2018-12-01T21:54:04.535Z,98125.00
2018-12-01T21:56:16.782Z,98124.91
2018-12-01T21:58:29.043Z,98125.21
2018-12-01T22:00:45.741Z,98123.39
2018-12-01T22:02:59.588Z,98116.38
2018-12-01T22:05:13.624Z,98109.38
2018-12-01T22:07:25.913Z,98114.62
2018-12-01T22:09:38.167Z,98115.17
2018-12-01T22:11:50.465Z,98108.55
2018-12-01T22:14:02.714Z,98109.91
2018-12-01T22:16:15.034Z,98110.80
2018-12-01T22:18:27.265Z,98104.89
2018-12-01T22:20:39.452Z,98107.73
2018-12-01T22:22:51.912Z,98103.33
2018-12-01T22:25:05.343Z,98099.98
2018-12-01T22:27:17.545Z,98096.41
2018-12-01T22:29:29.821Z,98093.09
2018-12-01T22:31:42.034Z,98095.95
2018-12-01T22:33:54.226Z,98094.75
2018-12-01T22:36:06.485Z,98096.25
2018-12-01T22:38:18.730Z,98096.19
2018-12-01T22:40:33.455Z,98086.06
2018-12-01T22:42:45.781Z,98095.89
2018-12-01T22:44:58.013Z,98090.46
2018-12-01T22:47:10.284Z,98093.14
2018-12-01T22:49:22.485Z,98080.20
2018-12-01T22:51:34.658Z,98081.66
2018-12-01T22:53:46.921Z,98076.39
2018-12-01T22:55:59.097Z,98072.44
2018-12-01T22:58:12.303Z,98065.05
2018-12-01T23:00:34.428Z,98058.95
2018-12-01T23:02:46.699Z,98055.98
2018-12-01T23:04:58.937Z,98062.83
2018-12-01T23:07:11.137Z,98064.89
2018-12-01T23:09:23.541Z,98061.38
2018-12-01T23:11:35.988Z,98060.91
2018-12-01T23:13:48.405Z,98063.96
2018-12-01T23:16:00.651Z,98055.27
2018-12-01T23:18:14.392Z,98050.55
2018-12-01T23:20:26.636Z,98040.92
2018-12-01T23:22:38.869Z,98046.87
2018-12-01T23:24:51.110Z,98043.95
2018-12-01T23:27:03.314Z,98038.38
2018-12-01T23:29:15.565Z,98033.66
2018-12-01T23:31:27.990Z,98030.28
2018-12-01T23:33:40.239Z,98030.28
2018-12-01T23:35:52.469Z,98027.83
2018-12-01T23:38:04.932Z,98025.14
2018-12-01T23:40:17.212Z,98018.34
2018-12-01T23:42:29.560Z,98010.94
2018-12-01T23:44:41.818Z,98005.23
2018-12-01T23:46:54.067Z,98004.66
2018-12-01T23:49:06.232Z,98010.23
2018-12-01T23:51:18.472Z,98002.06
2018-12-01T23:53:30.695Z,97992.53
2018-12-01T23:55:42.943Z,97994.75
2018-12-01T23:57:55.152Z,97990.33
